Tiempo atmosférico en la estación meteorológica de Arcos de Jalón, Soria (863 m.)



Fecha
DESCASC
Temp. máxima en grados centígrados (hora)
DESCASC
Temp. mínima en grados centígrados (hora)
DESCASC
Temp. media en grados centígrados
DESCASC
Racha de viento máxima en m/sg (hora)
DESCASC
Velocidad máxima media en intervalos de 10 minutos(hora)
DESCASC
Precipitaciones diarias en mm
DESCASC
Precipitaciones de 00:00 a 06:00 en mm
DESCASC
Precipitaciones de 06:00 a 12:00 en mm
DESCASC
Precipitaciones de 12:00 a 18:00 en mm
DESCASC
Precipitaciones de 18:00 a 24:00 en mm
DESCASC
29-03-2020 17.5 (16:50) 0.9 (08:10) 9.2 8.89 (19:10) 5.28 (19:30) 0 0 0 0 0
28-03-2020 14.6 (17:00) -1.8 (05:20) 6.4 6.67 (16:10) 3.89 (16:10) 0 0 0 0 0
27-03-2020 10.6 (16:10) -0.3 (07:50) 5.2 8.06 (15:10) 4.44 (15:50) 0 0 0 0 0
26-03-2020 10.4 (15:10) -1 (-00:0) 4.7 11.39 (13:20) 6.67 (13:20) 0 0 0 0 0
25-03-2020 14.5 (15:10) 3.3 (00:00) 8.9 10 (15:50) 5.83 (15:50) 0 0 0 0 0
24-03-2020 11.5 (14:50) 3.4 (00:00) 7.5 10.28 (12:40) 6.11 (12:40) 0.2 0.2 0 0 0
23-03-2020 11.2 (15:20) 6.9 (00:00) 9 8.61 (13:40) 5.56 (16:20) 0.2 0 0 0 0.2
22-03-2020 12.6 (14:10) 6 (04:50) 9.3 9.72 (14:50) 5.83 (14:00) 4.8 3.4 1.4 0 0
21-03-2020 10.8 (14:30) 6.3 (00:00) 8.6 6.11 (23:20) 4.17 (23:20) 0 0 0 0 0
20-03-2020 13.1 (16:40) 5.3 (00:00) 9.2 6.11 (18:20) 3.89 (20:20) 0 0 0 0 0
19-03-2020 15.4 (16:10) 6.2 (00:00) 10.8 8.61 (17:30) 4.72 (17:40) 0 0 0 0 0
18-03-2020 14 (17:00) 6.7 (00:00) 10.3 5.28 (16:30) 3.06 (16:30) 0 0 0 0 0
17-03-2020 9.8 (15:50) 2.4 (00:00) 6.1 8.33 (21:00) 4.72 (16:50) 10 7 2.6 0.4 0
16-03-2020 9.1 (00:10) 0.8 (00:00) 5 10.28 (00:30) 6.94 (00:30) 38.8 7.6 14.6 12.8 3.8
15-03-2020 -- (--) -- (--) -- -- (--) -- (--) -- 0 0 -- --
14-03-2020 19.4 (16:20) 3.2 (00:00) 11.3 5.56 (10:40) 3.33 (07:00) 0 0 0 0 0
13-03-2020 17.1 (15:50) 6.8 (23:59) 12 8.06 (16:40) 4.72 (16:20) 0 0 0 0 0
12-03-2020 26.2 (15:10) 6.2 (00:00) 16.2 10.56 (15:20) 7.5 (14:20) 0 0 0 0 0
11-03-2020 25.4 (16:30) 6.1 (00:00) 15.7 8.61 (17:30) 5 (14:20) 0 0 0 0 0
10-03-2020 22 (16:00) 5.2 (00:00) 13.6 10.56 (14:20) 7.5 (14:10) 0 0 0 0 0
09-03-2020 14.4 (17:30) 4.6 (00:00) 9.5 11.39 (12:30) 7.78 (03:40) 0 0 0 0 0
08-03-2020 15.3 (15:30) 0.3 (00:00) 7.8 11.11 (11:10) 8.33 (11:10) 0 0 0 0 0
07-03-2020 13.2 (15:30) 0 (00:00) 6.6 11.39 (10:30) 6.39 (01:10) 0 0 0 0 0
06-03-2020 8.5 (15:40) 3 (00:00) 5.8 17.78 (07:50) 11.39 (09:00) 0.6 0 0 0.6 0
05-03-2020 11.9 (14:50) 6.3 (00:00) 9.1 19.17 (12:10) 12.5 (14:00) 3 0 0.2 2.8 0
04-03-2020 15.1 (15:00) 7.4 (00:50) 11.3 14.17 (16:30) 10 (16:10) -- 0 0 -- 0
03-03-2020 15.3 (17:10) 2.4 (00:00) 8.9 23.89 (14:40) 16.11 (15:30) 1.2 0 1.2 0 0
02-03-2020 10.7 (00:20) 2.4 (00:00) 6.5 27.78 (07:30) 17.5 (07:30) 6.4 4.2 1.2 1 0
01-03-2020 13.9 (15:50) 5.6 (00:00) 9.7 23.61 (23:59) 15 (23:30) 0.4 0 0 0 0.4
29-02-2020 12.8 (16:30) 5.3 (00:00) 9.1 21.94 (09:30) 13.61 (08:30) 0 0 0 0 0

Gráficas

Temp. máximas Temp. mínimas Temp. medias Precipitaciones Rachas de viento máximas Velocidades máximas media en intervalos de 10 minutos

Datos horarios

Fecha y hora oficial Temperatura (ºC) Velocidad del viento (km/h) Dirección del viento Racha (km/h) Dirección de racha Precipitación (mm) Presión (hPa) Tendencia (hPa) Humedad (%)
2020-03-29 23:00:00 7.5 5 Nordeste 18 Nordeste 0 -- -- 69
2020-03-29 22:00:00 8.4 8 Nordeste 18 Nordeste 0 -- -- 66
2020-03-29 21:00:00 9.6 4 Norte 27 Noroeste 0 -- -- 60
2020-03-29 20:00:00 11.4 16 Norte 32 Norte 0 -- -- 49
2020-03-29 19:00:00 13.7 15 Noroeste 30 Noroeste 0 -- -- 37
2020-03-29 18:00:00 15.4 13 Norte 26 Noroeste 0 -- -- 34
2020-03-29 17:00:00 17.1 8 Oeste 24 Norte 0 -- -- 39
2020-03-29 16:00:00 17.1 7 Noroeste 26 Oeste 0 -- -- 36
2020-03-29 15:00:00 16.4 12 Oeste 24 Noroeste 0 -- -- 37
2020-03-29 14:00:00 15.8 14 Noroeste 26 Noroeste 0 -- -- 41
2020-03-29 13:00:00 15 10 Norte 21 Noroeste 0 -- -- 42
2020-03-29 12:00:00 14.3 6 Oeste 21 Sudoeste 0 -- -- 50
2020-03-29 11:00:00 11.6 9 Sudoeste 16 Sudoeste 0 -- -- 54
2020-03-29 10:00:00 7.5 14 Oeste 17 Oeste 0 -- -- 72
2020-03-29 09:00:00 3.4 12 Sudoeste 15 Oeste 0 -- -- 80
2020-03-29 08:00:00 1.4 10 Sudoeste 14 Sudoeste 0 -- -- 82
2020-03-29 07:00:00 2.4 12 Oeste 15 Oeste 0 -- -- 82
2020-03-29 06:00:00 2.5 12 Sudoeste 18 Sudoeste 0 -- -- 80
2020-03-29 05:00:00 2.8 13 Sudoeste 17 Sudoeste 0 -- -- 79
2020-03-29 03:00:00 4 12 Oeste 17 Sudoeste 0 -- -- 75
2020-03-29 01:00:00 4.3 10 Sudoeste 15 Sudoeste 0 -- -- 74
2020-03-29 00:00:00 4.4 11 Sudoeste 15 Sudoeste 0 -- -- 74
2020-03-28 23:00:00 5.4 9 Sudoeste 14 Sudoeste 0 -- -- 70
2020-03-28 22:00:00 5.9 8 Sudoeste 13 Sudoeste 0 -- -- 70
2020-03-28 21:00:00 7 5 Sudoeste 8 Sudoeste 0 -- -- 67
2020-03-28 20:00:00 10.5 2 Sudoeste 10 Nordeste 0 -- -- 56
2020-03-28 19:00:00 12.9 5 Norte 15 Norte 0 -- -- 42
2020-03-28 18:00:00 13.6 7 Norte 19 Norte 0 -- -- 40
2020-03-28 17:00:00 14.6 10 Nordeste 24 Norte 0 -- -- 40
2020-03-28 16:00:00 14 12 Norte 23 Nordeste 0 -- -- 42
2020-03-28 15:00:00 14.1 10 Nordeste 23 Nordeste 0 -- -- 41
2020-03-28 14:00:00 13.3 7 Nordeste 21 Este 0 -- -- 43
2020-03-28 13:00:00 12.4 12 Nordeste 21 Nordeste 0 -- -- 44
2020-03-28 12:00:00 11.8 8 Este 15 Nordeste 0 -- -- 44
2020-03-28 11:00:00 10.2 4 Nordeste 12 Norte 0 -- -- 46
2020-03-28 10:00:00 7.9 3 Nordeste 5 Nordeste 0 -- -- 62
2020-03-28 09:00:00 3.9 6 Oeste 13 Sudoeste 0 -- -- 77
2020-03-28 08:00:00 0.2 9 Sudoeste 14 Sudoeste 0 -- -- 84
2020-03-28 07:00:00 -1.5 8 Sudoeste 12 Sudoeste 0 -- -- 85
2020-03-28 06:00:00 -1.5 9 Sudoeste 13 Sudoeste 0 -- -- 87
2020-03-28 05:00:00 -1.4 6 Sudoeste 11 Sudoeste 0 -- -- 86
2020-03-28 04:00:00 -1 9 Sudoeste 12 Sudoeste 0 -- -- 85
2020-03-28 03:00:00 -0.9 8 Sudoeste 12 Sudoeste 0 -- -- 85
2020-03-28 02:00:00 -0.4 8 Sudoeste 12 Sudoeste 0 -- -- 83
2020-03-28 01:00:00 0.6 9 Sudoeste 13 Sudoeste 0 -- -- 82
2020-03-28 00:00:00 1.1 6 Sudoeste 9 Sudoeste 0 -- -- 80
2020-03-27 23:00:00 1.9 2 Sudoeste 4 Sudoeste 0 -- -- 75
2020-03-27 22:00:00 3.2 5 Oeste 8 Oeste 0 -- -- 73
2020-03-27 21:00:00 5.1 0 Calma 11 Nordeste 0 -- -- 61
2020-03-27 20:00:00 7.7 8 Nordeste 18 Nordeste 0 -- -- 51
2020-03-27 19:00:00 9.2 10 Nordeste 21 Norte 0 -- -- 45
2020-03-27 18:00:00 10 10 Nordeste 22 Este 0 -- -- 41
2020-03-27 17:00:00 10.5 10 Norte 26 Norte 0 -- -- 39
2020-03-27 16:00:00 10.3 13 Nordeste 29 Nordeste 0 -- -- 39
2020-03-27 15:00:00 10 13 Norte 26 Nordeste 0 -- -- 43
2020-03-27 14:00:00 9.3 12 Nordeste 23 Nordeste 0 -- -- 48
2020-03-27 13:00:00 8.2 10 Nordeste 23 Nordeste 0 -- -- 51
2020-03-27 12:00:00 7.1 12 Nordeste 26 Nordeste 0 -- -- 55
2020-03-27 11:00:00 5.6 13 Norte 23 Nordeste 0 -- -- 60
2020-03-27 10:00:00 4.4 11 Nordeste 23 Norte 0 -- -- 63
2020-03-27 09:00:00 2.9 4 Nordeste 12 Nordeste 0 -- -- 72
2020-03-27 08:00:00 -0.3 0 Calma 4 Norte 0 -- -- 83
2020-03-27 07:00:00 0.3 2 Nordeste 13 Norte 0 -- -- 79
2020-03-27 06:00:00 1.1 6 Nordeste 10 Nordeste 0 -- -- 77
2020-03-27 05:00:00 1.1 0 Calma 8 Noroeste 0 -- -- 75
2020-03-27 04:00:00 1 5 Noroeste 15 Oeste 0 -- -- 73
2020-03-27 03:00:00 1.8 6 Noroeste 16 Noroeste -- -- -- 67
2020-03-27 02:00:00 2.6 2 Nordeste 8 Norte 0 -- -- 63
2020-03-27 01:00:00 3 5 Nordeste 23 Noroeste 0 -- -- 60
2020-03-27 00:00:00 3.1 12 Noroeste 27 Norte 0 -- -- 60
2020-03-26 23:00:00 3.4 6 Noroeste 14 Norte 0 -- -- 61
2020-03-26 22:00:00 3.5 2 Norte 10 Oeste 0 -- -- 61
2020-03-26 21:00:00 4.8 0 Calma 19 Noroeste 0 -- -- 57
2020-03-26 20:00:00 6.1 9 Norte 20 Noroeste 0 -- -- 50
2020-03-26 19:00:00 7.9 8 Norte 24 Noroeste 0 -- -- 42
2020-03-26 18:00:00 9 14 Noroeste 30 Norte 0 -- -- 39
2020-03-26 17:00:00 10.3 12 Noroeste 30 Noroeste 0 -- -- 37
2020-03-26 16:00:00 10.1 12 Noroeste 31 Noroeste 0 -- -- 43
2020-03-26 15:00:00 10.2 17 Noroeste 36 Noroeste 0 -- -- 44
2020-03-26 14:00:00 9.1 15 Noroeste 41 Noroeste 0 -- -- 43
2020-03-26 13:00:00 8.8 20 Noroeste 36 Norte 0 -- -- 49
2020-03-26 12:00:00 8.6 12 Noroeste 24 Oeste 0 -- -- 52
2020-03-26 11:00:00 8 9 Noroeste 20 Sudoeste 0 -- -- 58
2020-03-26 10:00:00 5.2 14 Sudoeste 21 Sudoeste 0 -- -- 64
2020-03-26 09:00:00 3.3 15 Sudoeste 21 Sudoeste 0 -- -- 70
2020-03-26 08:00:00 0.8 3 Sur 14 Oeste 0 -- -- 81
2020-03-26 07:00:00 -0.7 10 Sudoeste 14 Oeste 0 -- -- 85
2020-03-26 06:00:00 -1 6 Sudoeste 9 Sudoeste 0 -- -- 85
2020-03-26 05:00:00 0 4 Sudoeste 7 Oeste 0 -- -- 81
2020-03-26 04:00:00 1.5 4 Sur 9 Sudeste 0 -- -- 75
2020-03-26 03:00:00 1.5 0 Calma 12 Sur 0 -- -- 86
2020-03-26 02:00:00 2.9 7 Sudoeste 14 Sudoeste 0 -- -- 88
2020-03-26 01:00:00 3.1 6 Sudoeste 10 Sudoeste 0 -- -- 87
2020-03-26 00:00:00 4.3 8 Oeste 12 Oeste 0 -- -- 86
2020-03-25 23:00:00 5 4 Sudoeste 14 Sudoeste 0 -- -- 86
2020-03-25 22:00:00 5.3 5 Sudoeste 14 Oeste 0 -- -- 81
2020-03-25 21:00:00 6.7 9 Sudoeste 14 Sudoeste 0 -- -- 81
2020-03-25 20:00:00 8.3 9 Oeste 12 Oeste 0 -- -- 76
2020-03-25 19:00:00 10.5 5 Este 17 Nordeste 0 -- -- 58
2020-03-25 18:00:00 10.6 3 Noroeste 18 Norte 0 -- -- 64
2020-03-25 17:00:00 11.3 12 Nordeste 33 Nordeste 0 -- -- 57
2020-03-25 16:00:00 12.9 19 Nordeste 36 Nordeste 0 -- -- 55
2020-03-25 15:00:00 14 6 Noroeste 18 Norte 0 -- -- 43
2020-03-25 14:00:00 12.8 4 Oeste 13 Noroeste 0 -- -- 49
2020-03-25 13:00:00 12.3 7 Noroeste 18 Norte 0 -- -- 55
2020-03-25 12:00:00 10.9 9 Norte 15 Norte 0 -- -- 62
2020-03-25 11:00:00 9 0 Calma 10 Sudoeste 0 -- -- 71
2020-03-25 10:00:00 7.9 9 Sudoeste 20 Sudoeste 0 -- -- 76
2020-03-25 09:00:00 6.5 10 Sudoeste 17 Sudoeste 0 -- -- 86
2020-03-25 08:00:00 5.5 8 Sudoeste 16 Sudoeste 0 -- -- 88
2020-03-25 07:00:00 5.3 15 Sudoeste 23 Sudoeste 0 -- -- 86
2020-03-25 06:00:00 4.1 8 Sur 12 Sur 0 -- -- 90
2020-03-25 05:00:00 4.2 4 Sudoeste 14 Oeste 0 -- -- 89
2020-03-25 04:00:00 4.2 6 Sudoeste 9 Sudoeste 0 -- -- 90
2020-03-25 03:00:00 4.3 3 Nordeste 18 Oeste 0 -- -- 87
2020-03-25 02:00:00 3.9 12 Sudoeste 16 Sudoeste 0 -- -- 90
2020-03-25 01:00:00 4 10 Sudoeste 17 Oeste 0 -- -- 90
2020-03-25 00:00:00 3.4 11 Oeste 16 Sudoeste 0 -- -- 90
2020-03-24 23:00:00 4.1 8 Sudoeste 13 Oeste 0 -- -- 88
2020-03-24 22:00:00 4.6 12 Oeste 15 Oeste 0 -- -- 87
2020-03-24 21:00:00 6.6 0 Calma 8 Este 0 -- -- 80
2020-03-24 20:00:00 8.5 3 Nordeste 13 Nordeste 0 -- -- 75
2020-03-24 19:00:00 9.7 9 Nordeste 22 Nordeste 0 -- -- 70
2020-03-24 18:00:00 10.3 15 Nordeste 27 Nordeste 0 -- -- 68
2020-03-24 17:00:00 11.3 15 Nordeste 30 Nordeste 0 -- -- 62
2020-03-24 16:00:00 10.5 18 Nordeste 30 Nordeste 0 -- -- 67
2020-03-24 15:00:00 11.2 21 Nordeste 32 Nordeste 0 -- -- 66
2020-03-24 14:00:00 10.9 16 Nordeste 32 Nordeste 0 -- -- 67
2020-03-24 13:00:00 11 21 Nordeste 37 Nordeste 0 -- -- 67
2020-03-24 12:00:00 9.9 18 Nordeste 32 Nordeste 0 -- -- 75
2020-03-24 11:00:00 9.5 15 Nordeste 32 Nordeste 0 -- -- 79
2020-03-24 10:00:00 8 16 Nordeste 27 Nordeste 0 -- -- 89
2020-03-24 09:00:00 7.2 16 Nordeste 26 Nordeste 0 -- -- 92
2020-03-24 08:00:00 6.9 11 Nordeste 23 Nordeste 0 -- -- 93
2020-03-24 07:00:00 6.9 11 Nordeste 19 Nordeste 0 -- -- 93
2020-03-24 06:00:00 7.2 12 Nordeste 22 Nordeste 0 -- -- 93
2020-03-24 05:00:00 7.3 7 Nordeste 17 Norte 0 -- -- 93
2020-03-24 04:00:00 7.5 9 Nordeste 18 Nordeste 0 -- -- 93
2020-03-24 03:00:00 7.5 7 Nordeste 12 Nordeste 0 -- -- 94
2020-03-24 02:00:00 7.5 4 Nordeste 13 Nordeste 0.2 -- -- 93
2020-03-24 01:00:00 7.6 8 Nordeste 15 Nordeste 0 -- -- 92
2020-03-24 00:00:00 7.9 8 Nordeste 15 Norte 0 -- -- 91
2020-03-23 23:00:00 8.2 8 Nordeste 15 Nordeste 0 -- -- 90
2020-03-23 22:00:00 8 6 Norte 12 Norte 0 -- -- 91
2020-03-23 21:00:00 8.3 4 Nordeste 10 Nordeste 0.2 -- -- 89
2020-03-23 20:00:00 8.8 5 Nordeste 23 Nordeste 0 -- -- 86
2020-03-23 19:00:00 9.6 12 Nordeste 26 Norte 0 -- -- 79
2020-03-23 18:00:00 10.1 12 Nordeste 22 Norte 0 -- -- 80
2020-03-23 17:00:00 10 10 Nordeste 30 Nordeste 0 -- -- 82
2020-03-23 16:00:00 10.7 16 Nordeste 31 Nordeste 0 -- -- 76
2020-03-23 15:00:00 10.6 15 Nordeste 30 Nordeste 0 -- -- 77
2020-03-23 14:00:00 10.3 16 Nordeste 31 Nordeste 0 -- -- 78
2020-03-23 13:00:00 9.8 13 Nordeste 26 Nordeste 0 -- -- 76
2020-03-23 12:00:00 10 15 Nordeste 27 Nordeste 0 -- -- 74
2020-03-23 11:00:00 9.5 14 Nordeste 26 Nordeste 0 -- -- 80
2020-03-23 10:00:00 8.1 11 Nordeste 27 Nordeste 0 -- -- 88
2020-03-23 09:00:00 7.3 15 Nordeste 24 Norte 0 -- -- 91
2020-03-23 08:00:00 7 14 Nordeste 23 Nordeste 0 -- -- 91
2020-03-23 07:00:00 7 11 Nordeste 18 Nordeste 0 -- -- 91
2020-03-23 06:00:00 6.9 7 Nordeste 14 Norte 0 -- -- 91
2020-03-23 05:00:00 7 6 Nordeste 15 Nordeste 0 -- -- 90
2020-03-23 04:00:00 7.3 10 Nordeste 19 Nordeste 0 -- -- 88
2020-03-23 03:00:00 7.4 0 Calma 2 Sur 0 -- -- 88
2020-03-23 02:00:00 7.3 0 Calma 3 Sudeste 0 -- -- 88
2020-03-23 01:00:00 7.3 0 Calma 4 Sudeste 0 -- -- 86
2020-03-23 00:00:00 7.6 3 Nordeste 14 Norte 0 -- -- 84
2020-03-22 23:00:00 7.6 3 Nordeste 7 Nordeste 0 -- -- 81
2020-03-22 22:00:00 7.8 0 Calma 9 Nordeste 0 -- -- 77
2020-03-22 21:00:00 8.6 5 Nordeste 10 Nordeste 0 -- -- 71
2020-03-22 20:00:00 9.6 6 Norte 21 Nordeste 0 -- -- 70
2020-03-22 19:00:00 10.6 11 Nordeste 25 Nordeste 0 -- -- 65
2020-03-22 18:00:00 10.9 13 Nordeste 30 Nordeste 0 -- -- 63
2020-03-22 17:00:00 11.2 19 Nordeste 33 Nordeste 0 -- -- 64
2020-03-22 16:00:00 11.5 18 Nordeste 33 Nordeste 0 -- -- 60
2020-03-22 15:00:00 12.2 19 Nordeste 35 Nordeste 0 -- -- 57
2020-03-22 14:00:00 12.5 21 Nordeste 34 Nordeste 0 -- -- 56
2020-03-22 13:00:00 11.8 12 Nordeste 26 Nordeste 0 -- -- 64
2020-03-22 12:00:00 11.5 8 Nordeste 17 Nordeste 0 -- -- 71
2020-03-22 11:00:00 9.9 8 Nordeste 12 Este 0 -- -- 79
2020-03-22 10:00:00 8.5 0 Calma 5 Sudoeste 0 -- -- 86
2020-03-22 09:00:00 6.8 4 Sudoeste 9 Oeste 0 -- -- 93
2020-03-22 08:00:00 6.1 5 Oeste 8 Sudoeste 0.2 -- -- 94
2020-03-22 07:00:00 6 3 Oeste 5 Oeste 1.2 -- -- 94
2020-03-22 06:00:00 6.1 0 Calma 4 Sur 0.6 -- -- 93
2020-03-22 05:00:00 6 4 Sudoeste 8 Sudoeste 1.2 -- -- 93
2020-03-22 04:00:00 6.2 3 Sur 15 Sudoeste 1.6 -- -- 91
2020-03-22 03:00:00 6.6 9 Sudoeste 14 Sur 0 -- -- 86
2020-03-22 02:00:00 7 12 Sudoeste 14 Sudoeste 0 -- -- 83
2020-03-22 01:00:00 7.2 11 Sudoeste 20 Sudoeste 0 -- -- 83
2020-03-22 00:00:00 7.4 13 Sudoeste 22 Sudoeste 0 -- -- 84
2020-03-21 23:00:00 7.9 12 Sudoeste 20 Sur 0 -- -- 85
2020-03-21 22:00:00 8.6 8 Sudoeste 14 Sudoeste 0 -- -- 83
2020-03-21 21:00:00 9 8 Sudoeste 17 Sudoeste 0 -- -- 82
2020-03-21 20:00:00 9.6 3 Sur 6 Oeste 0 -- -- 81
2020-03-21 19:00:00 10 5 Sudoeste 9 Sudoeste 0 -- -- 79
2020-03-21 18:00:00 10.2 6 Sudoeste 16 Sur 0 -- -- 76
2020-03-21 17:00:00 10.8 8 Sur 12 Sur 0 -- -- 73
2020-03-21 16:00:00 10.5 5 Sudeste 15 Sur 0 -- -- 72
2020-03-21 15:00:00 10.8 2 Nordeste 6 Nordeste 0 -- -- 71
2020-03-21 14:00:00 10.6 5 Nordeste 10 Norte 0 -- -- 71
2020-03-21 13:00:00 10.4 6 Norte 11 Nordeste 0 -- -- 72
2020-03-21 12:00:00 9.6 6 Nordeste 10 Nordeste 0 -- -- 80
2020-03-21 11:00:00 8.4 3 Nordeste 7 Nordeste 0 -- -- 86
2020-03-21 10:00:00 7.6 3 Nordeste 6 Nordeste 0 -- -- 90
2020-03-21 09:00:00 6.8 2 Norte 6 Nordeste 0 -- -- 93
2020-03-21 08:00:00 6.4 2 Este 4 Nordeste 0 -- -- 93
2020-03-21 07:00:00 6.4 2 Nordeste 3 Norte 0 -- -- 92
2020-03-21 06:00:00 6.7 2 Nordeste 5 Nordeste 0 -- -- 91
2020-03-21 05:00:00 7 0 Calma 2 Este 0 -- -- 91
2020-03-21 04:00:00 7 0 Calma 2 Sur 0 -- -- 91
2020-03-21 03:00:00 6.7 0 Calma 4 Sur 0 -- -- 91
2020-03-21 02:00:00 6.6 0 Calma 4 Oeste 0 -- -- 90
2020-03-21 01:00:00 7.1 0 Calma 11 Norte 0 -- -- 88
2020-03-21 00:00:00 8 8 Norte 17 Norte 0 -- -- 87
2020-03-20 23:00:00 8.6 9 Norte 15 Norte 0 -- -- 87
2020-03-20 22:00:00 9 4 Norte 11 Nordeste 0 -- -- 84
2020-03-20 21:00:00 9.9 8 Norte 21 Norte 0 -- -- 82
2020-03-20 20:00:00 10.6 9 Nordeste 18 Nordeste 0 -- -- 78
2020-03-20 19:00:00 11.8 8 Nordeste 22 Nordeste 0 -- -- 73
2020-03-20 18:00:00 12.6 11 Nordeste 20 Nordeste 0 -- -- 69
2020-03-20 17:00:00 12.9 4 Norte 15 Nordeste 0 -- -- 66
2020-03-20 16:00:00 12.7 8 Nordeste 18 Nordeste 0 -- -- 66
2020-03-20 15:00:00 11.5 8 Nordeste 15 Este 0 -- -- 71
2020-03-20 14:00:00 11.1 6 Nordeste 14 Nordeste 0 -- -- 74
2020-03-20 13:00:00 10.4 5 Nordeste 12 Nordeste 0 -- -- 76
2020-03-20 12:00:00 9.4 4 Este 9 Este 0 -- -- 82
2020-03-20 11:00:00 7.7 3 Nordeste 7 Nordeste 0 -- -- 86
2020-03-20 10:00:00 6.8 3 Nordeste 6 Nordeste 0 -- -- 91
2020-03-20 09:00:00 6.1 3 Nordeste 4 Nordeste 0 -- -- 93
2020-03-20 08:00:00 5.4 2 Este 5 Nordeste 0 -- -- 93
2020-03-20 07:00:00 5.4 0 Calma 6 Nordeste 0 -- -- 92
2020-03-20 06:00:00 6.2 4 Norte 8 Nordeste 0 -- -- 91
2020-03-20 05:00:00 6.8 2 Norte 6 Noroeste 0 -- -- 90
2020-03-20 04:00:00 6.8 3 Oeste 8 Sudoeste 0 -- -- 90
2020-03-20 03:00:00 6 4 Sur 10 Oeste 0 -- -- 90
2020-03-20 02:00:00 5.8 8 Sudoeste 12 Sudoeste 0 -- -- 91
2020-03-20 01:00:00 5.7 5 Sudoeste 8 Sudoeste 0 -- -- 89
2020-03-20 00:00:00 6.2 2 Este 10 Sudoeste 0 -- -- 88
2020-03-19 23:00:00 6.7 0 Calma 6 Sudeste 0 -- -- 84
2020-03-19 22:00:00 7.9 0 Calma 4 Sur 0 -- -- 81
2020-03-19 21:00:00 9.7 3 Nordeste 12 Norte 0 -- -- 72
2020-03-19 20:00:00 11 8 Norte 19 Nordeste 0 -- -- 66
2020-03-19 19:00:00 12.7 10 Nordeste 26 Nordeste 0 -- -- 63
2020-03-19 18:00:00 14.2 14 Nordeste 31 Norte 0 -- -- 59
2020-03-19 17:00:00 15.1 13 Nordeste 25 Nordeste 0 -- -- 52
2020-03-19 16:00:00 15.3 9 Nordeste 21 Nordeste 0 -- -- 51
2020-03-19 15:00:00 14.7 9 Nordeste 21 Nordeste 0 -- -- 52
2020-03-19 14:00:00 13.9 8 Nordeste 19 Este 0 -- -- 57
2020-03-19 13:00:00 12.5 8 Nordeste 17 Norte 0 -- -- 70
2020-03-19 12:00:00 10.1 5 Nordeste 14 Nordeste 0 -- -- 81
2020-03-19 11:00:00 8.2 8 Nordeste 14 Este 0 -- -- 86
2020-03-19 10:00:00 7.5 4 Nordeste 11 Nordeste 0 -- -- 90
2020-03-19 09:00:00 6.9 3 Este 6 Sudeste 0 -- -- 93
2020-03-19 08:00:00 6.6 3 Sur 6 Sur 0 -- -- 95
2020-03-19 07:00:00 6.8 3 Nordeste 8 Nordeste 0 -- -- 95
2020-03-19 06:00:00 7.1 2 Nordeste 6 Nordeste 0 -- -- 95
2020-03-19 05:00:00 7.4 4 Norte 6 Norte 0 -- -- 95
2020-03-19 04:00:00 7.8 3 Noroeste 5 Noroeste 0 -- -- 95
2020-03-19 03:00:00 8.3 4 Nordeste 6 Nordeste 0 -- -- 95
2020-03-19 02:00:00 8.7 3 Nordeste 9 Nordeste 0 -- -- 94
2020-03-19 01:00:00 8.9 0 Calma 8 Nordeste 0 -- -- 94
2020-03-19 00:00:00 7.7 0 Calma 4 Sur 0 -- -- 92
2020-03-18 23:00:00 8.1 0 Calma 3 Sur 0 -- -- 90
2020-03-18 22:00:00 9.6 0 Calma 8 Norte 0 -- -- 87
2020-03-18 21:00:00 10.7 0 Calma 13 Nordeste 0 -- -- 84
2020-03-18 20:00:00 11.7 6 Nordeste 14 Nordeste 0 -- -- 81
2020-03-18 19:00:00 12.7 5 Norte 10 Norte 0 -- -- 76
2020-03-18 18:00:00 13.4 7 Norte 14 Norte 0 -- -- 72
2020-03-18 17:00:00 14 6 Nordeste 19 Nordeste 0 -- -- 71
2020-03-18 16:00:00 13.5 5 Nordeste 12 Nordeste 0 -- -- 71
2020-03-18 15:00:00 12.8 8 Nordeste 15 Nordeste 0 -- -- 72
2020-03-18 14:00:00 12.8 6 Nordeste 13 Norte 0 -- -- 72
2020-03-18 13:00:00 12.4 6 Nordeste 15 Nordeste 0 -- -- 72
2020-03-18 12:00:00 11.5 10 Nordeste 18 Nordeste 0 -- -- 77
2020-03-18 11:00:00 9.9 6 Nordeste 11 Nordeste 0 -- -- 93
2020-03-18 10:00:00 7.7 5 Norte 14 Nordeste 0 -- -- 97
2020-03-18 09:00:00 7.1 4 Nordeste 8 Nordeste 0 -- -- 97
2020-03-18 08:00:00 6.7 0 Calma 4 Este 0 -- -- 97
2020-03-18 07:00:00 6.9 2 Nordeste 5 Norte 0 -- -- 97
2020-03-18 06:00:00 7 3 Nordeste 11 Norte 0 -- -- 96
2020-03-18 05:00:00 7.3 5 Norte 13 Norte 0 -- -- 96
2020-03-18 04:00:00 7.5 5 Nordeste 12 Nordeste 0 -- -- 96
2020-03-18 03:00:00 7.8 5 Nordeste 11 Nordeste 0 -- -- 95
2020-03-18 02:00:00 8 6 Nordeste 12 Nordeste 0 -- -- 95
2020-03-18 01:00:00 8.3 5 Nordeste 15 Nordeste 0 -- -- 94
2020-03-18 00:00:00 8.5 6 Nordeste 18 Nordeste 0 -- -- 94
2020-03-17 23:00:00 8.7 9 Norte 25 Nordeste 0 -- -- 94
2020-03-17 22:00:00 8.9 13 Nordeste 24 Nordeste 0 -- -- 95
2020-03-17 21:00:00 9.1 16 Nordeste 30 Nordeste 0 -- -- 96
2020-03-17 20:00:00 9.1 13 Nordeste 21 Norte 0 -- -- 97
2020-03-17 19:00:00 9 9 Nordeste 22 Nordeste 0 -- -- 97
2020-03-17 18:00:00 9 12 Nordeste 30 Nordeste 0 -- -- 96
2020-03-17 17:00:00 9.3 15 Nordeste 27 Norte 0 -- -- 96
2020-03-17 16:00:00 9.8 13 Nordeste 25 Nordeste 0.4 -- -- 97
2020-03-17 15:00:00 8.6 9 Nordeste 22 Nordeste 0 -- -- 97
2020-03-17 14:00:00 8.2 14 Nordeste 24 Nordeste 0 -- -- 97
2020-03-17 13:00:00 8 10 Nordeste 22 Nordeste 0 -- -- 97
2020-03-17 12:00:00 7.9 10 Nordeste 21 Nordeste 0.2 -- -- 97
2020-03-17 11:00:00 7.5 12 Nordeste 24 Nordeste 0.2 -- -- 97
2020-03-17 10:00:00 7.4 8 Nordeste 19 Norte 0 -- -- 97
2020-03-17 09:00:00 6.8 6 Nordeste 11 Nordeste 0.4 -- -- 97
2020-03-17 08:00:00 6.3 5 Este 9 Nordeste 0.8 -- -- 97
2020-03-17 07:00:00 6 5 Nordeste 15 Norte 1 -- -- 97
2020-03-17 06:00:00 5.1 3 Noroeste 7 Norte 4.2 -- -- 98
2020-03-17 05:00:00 4 2 Sur 7 Sur 1.2 -- -- 97
2020-03-17 04:00:00 3.7 2 Oeste 8 Sur 0.8 -- -- 97
2020-03-17 03:00:00 3.3 0 Calma 6 Sur 0.6 -- -- 96
2020-03-17 02:00:00 3 3 Sudeste 5 Sur 0 -- -- 96
2020-03-17 01:00:00 2.6 2 Sudoeste 7 Sudoeste 0.2 -- -- 96
2020-03-17 00:00:00 2.4 2 Sur 4 Sur 0 -- -- 96
2020-03-16 23:00:00 2.3 0 Calma 4 Norte 0 -- -- 95
2020-03-16 22:00:00 2.2 0 Calma 4 Sudeste 0 -- -- 95
2020-03-16 21:00:00 2.1 0 Calma 3 Sudeste 0.4 -- -- 95
2020-03-16 20:00:00 2 3 Sur 12 Sur 0.4 -- -- 95
2020-03-16 19:00:00 2.1 0 Calma 8 Este 3 -- -- 94
2020-03-16 18:00:00 2.9 6 Norte 27 Norte 3.2 -- -- 94
2020-03-16 17:00:00 1 7 Sur 10 Sur 2.2 -- -- 95
2020-03-16 16:00:00 1.6 4 Sur 11 Sur 2.2 -- -- 95
2020-03-16 15:00:00 1.5 4 Sur 6 Sur 2.4 -- -- 95
2020-03-16 14:00:00 1.2 0 Calma 5 Oeste 1.2 -- -- 95
2020-03-16 13:00:00 1 3 Sur 7 Norte 1.6 -- -- 94
2020-03-16 12:00:00 1.2 0 Calma 9 Noroeste 1.6 -- -- 94
2020-03-16 11:00:00 1 2 Nordeste 11 Noroeste 1 -- -- 93
2020-03-16 10:00:00 1.1 5 Oeste 34 Noroeste 3.6 -- -- 92
2020-03-16 09:00:00 2.4 18 Noroeste 31 Norte 1.8 -- -- 91
2020-03-16 08:00:00 3.1 9 Oeste 24 Oeste 4.2 -- -- 90
2020-03-16 07:00:00 5 6 Sudoeste 26 Sudoeste 2.4 -- -- 90
2020-03-16 06:00:00 6.2 14 Sudoeste 21 Oeste 1.8 -- -- 88
2020-03-16 05:00:00 6.8 16 Sudoeste 27 Sudoeste 2.8 -- -- 90
2020-03-16 04:00:00 8.3 7 Norte 13 Nordeste 1.2 -- -- 89
2020-03-16 03:00:00 8.5 4 Norte 27 Sur 0.8 -- -- 87
2020-03-16 02:00:00 8.8 17 Sur 30 Sur 0.4 -- -- 83
2020-03-16 01:00:00 8.7 11 Sur 37 Sur 0.6 -- -- 86
2020-03-16 00:00:00 9 19 Sur 28 Sur 0.2 -- -- 84
2020-03-15 23:00:00 8.9 5 Este 33 Sur 3.6 -- -- 83
2020-03-15 22:00:00 9.5 4 Sudoeste 42 Sur 1.6 -- -- 81
2020-03-15 21:00:00 -- -- -- -- -- -- -- -- --
2020-03-15 20:00:00 -- -- -- -- -- -- -- -- --
2020-03-15 19:00:00 -- -- -- -- -- -- -- -- --
2020-03-15 18:00:00 -- -- -- -- -- -- -- -- --
2020-03-15 17:00:00 -- -- -- -- -- -- -- -- --
2020-03-15 16:00:00 19.9 28 Sur 42 Sur 0 -- -- 43
2020-03-15 15:00:00 18.8 23 Sudoeste 39 Sur 0 -- -- 50
2020-03-15 14:00:00 19.3 24 Sur 37 Sur 0 -- -- 52
2020-03-15 13:00:00 17.1 17 Sudoeste 29 Sudoeste 0 -- -- 58
2020-03-15 12:00:00 13.2 5 Nordeste 12 Nordeste 0 -- -- 56
2020-03-15 11:00:00 11.5 6 Nordeste 10 Norte 0 -- -- 53
2020-03-15 10:00:00 7.9 4 Nordeste 8 Nordeste 0 -- -- 56
2020-03-15 09:00:00 5.6 0 Calma 2 Sudoeste 0 -- -- 73
2020-03-15 08:00:00 1.8 0 Calma 4 Sudoeste 0 -- -- 81
2020-03-15 07:00:00 1.3 0 Calma 4 Sudoeste 0 -- -- 79
2020-03-15 06:00:00 1.9 2 Sudoeste 9 Sudoeste 0 -- -- 77
2020-03-15 05:00:00 2.2 9 Sudoeste 14 Sudoeste 0 -- -- 75
2020-03-15 04:00:00 3.1 9 Sudoeste 15 Sudoeste 0 -- -- 72
2020-03-15 03:00:00 3 13 Sudoeste 16 Oeste 0 -- -- 72
2020-03-15 02:00:00 3.6 9 Sudoeste 14 Sudoeste 0 -- -- 69
2020-03-15 01:00:00 4.7 11 Sudoeste 14 Sudoeste 0 -- -- 64
2020-03-15 00:00:00 5.3 11 Sudoeste 13 Sudoeste 0 -- -- 63
2020-03-14 23:00:00 5.8 9 Sudoeste 12 Sudoeste 0 -- -- 62
2020-03-14 22:00:00 6.4 2 Sur 5 Sudoeste 0 -- -- 60
2020-03-14 21:00:00 8.8 2 Sudoeste 5 Sudoeste 0 -- -- 54
2020-03-14 20:00:00 13 4 Nordeste 10 Norte 0 -- -- 42
2020-03-14 19:00:00 16 3 Noroeste 7 Nordeste 0 -- -- 36
2020-03-14 18:00:00 18.1 3 Noroeste 14 Norte 0 -- -- 33
2020-03-14 17:00:00 19.2 4 Norte 14 Norte 0 -- -- 31
2020-03-14 16:00:00 19.1 5 Noroeste 14 Norte 0 -- -- 29
2020-03-14 15:00:00 18.5 3 Sudeste 16 Nordeste 0 -- -- 33
2020-03-14 14:00:00 17 4 Norte 16 Nordeste 0 -- -- 34
2020-03-14 13:00:00 15.7 4 Nordeste 12 Norte 0 -- -- 44
2020-03-14 12:00:00 13.9 4 Nordeste 11 Nordeste 0 -- -- 54
2020-03-14 11:00:00 11.8 9 Norte 20 Norte 0 -- -- 70
2020-03-14 10:00:00 10.8 2 Nordeste 7 Sudoeste 0 -- -- 73
2020-03-14 09:00:00 6.6 6 Sudoeste 11 Sudoeste 0 -- -- 89
2020-03-14 08:00:00 3.7 8 Sudoeste 14 Oeste 0 -- -- 90
2020-03-14 07:00:00 3.5 12 Oeste 14 Oeste 0 -- -- 91
2020-03-14 06:00:00 3.7 9 Sudoeste 12 Oeste 0 -- -- 90
2020-03-14 05:00:00 4.2 6 Sudoeste 12 Oeste 0 -- -- 89
2020-03-14 04:00:00 4.3 9 Sudoeste 14 Sur 0 -- -- 88
2020-03-14 03:00:00 4.6 6 Oeste 9 Sudoeste 0 -- -- 88
2020-03-14 02:00:00 5.1 4 Sudoeste 10 Sur 0 -- -- 86
2020-03-14 01:00:00 5.4 2 Sudoeste 8 Noroeste 0 -- -- 83
2020-03-14 00:00:00 6.8 3 Sur 7 Noroeste 0 -- -- 78
2020-03-13 23:00:00 8.6 0 Calma 9 Norte 0 -- -- 74
2020-03-13 22:00:00 9.9 6 Norte 19 Norte 0 -- -- 72
2020-03-13 21:00:00 10.9 11 Nordeste 19 Nordeste 0 -- -- 67
2020-03-13 20:00:00 11.9 10 Nordeste 22 Norte 0 -- -- 64
2020-03-13 19:00:00 13.4 14 Nordeste 27 Nordeste 0 -- -- 60
2020-03-13 18:00:00 14.8 15 Nordeste 29 Norte 0 -- -- 57
2020-03-13 17:00:00 16.3 17 Nordeste 29 Nordeste 0 -- -- 54
2020-03-13 16:00:00 17 12 Nordeste 26 Nordeste 0 -- -- 54
2020-03-13 15:00:00 16.6 12 Nordeste 28 Nordeste 0 -- -- 56
2020-03-13 14:00:00 15.5 10 Nordeste 23 Nordeste 0 -- -- 59
2020-03-13 13:00:00 14.5 13 Nordeste 26 Nordeste 0 -- -- 62
2020-03-13 12:00:00 13.4 13 Nordeste 22 Nordeste 0 -- -- 67
2020-03-13 11:00:00 11.5 8 Nordeste 14 Nordeste 0 -- -- 75
2020-03-13 10:00:00 9.8 6 Nordeste 12 Norte 0 -- -- 83
2020-03-13 09:00:00 8.5 0 Calma 4 Este 0 -- -- 89
2020-03-13 08:00:00 7.7 0 Calma 3 Sudeste 0 -- -- 89
2020-03-13 07:00:00 7.6 0 Calma 2 Nordeste 0 -- -- 88
2020-03-13 06:00:00 8 0 Calma 6 Norte 0 -- -- 87
2020-03-13 05:00:00 7.9 2 Sudoeste 5 Norte 0 -- -- 86
2020-03-13 04:00:00 9.1 3 Norte 6 Este 0 -- -- 85
2020-03-13 03:00:00 10.1 5 Nordeste 14 Norte 0 -- -- 83
2020-03-13 02:00:00 10.9 8 Norte 17 Nordeste 0 -- -- 81
2020-03-13 01:00:00 11.7 3 Norte 13 Norte 0 -- -- 77
2020-03-13 00:00:00 12.8 7 Norte 14 Norte 0 -- -- 75
2020-03-12 23:00:00 14.1 8 Norte 14 Norte 0 -- -- 69
2020-03-12 22:00:00 15.4 5 Norte 16 Norte 0 -- -- 62
2020-03-12 21:00:00 16.7 6 Nordeste 11 Nordeste 0 -- -- 53
2020-03-12 20:00:00 17.5 10 Sudoeste 16 Oeste 0 -- -- 48
2020-03-12 19:00:00 20.4 7 Sudoeste 21 Sudoeste 0 -- -- 43
2020-03-12 18:00:00 23.6 15 Sudoeste 31 Sudoeste 0 -- -- 34
2020-03-12 17:00:00 25.3 20 Sudoeste 29 Sudoeste 0 -- -- 32
2020-03-12 16:00:00 25.7 17 Sur 38 Sudoeste 0 -- -- 30
2020-03-12 15:00:00 25.9 23 Sudoeste 37 Sudoeste 0 -- -- 30
2020-03-12 14:00:00 25.2 19 Sudoeste 31 Sudoeste 0 -- -- 30
2020-03-12 13:00:00 24.3 11 Sur 23 Sur 0 -- -- 36
2020-03-12 12:00:00 18.5 5 Nordeste 9 Nordeste 0 -- -- 54
2020-03-12 11:00:00 16.5 6 Nordeste 11 Nordeste 0 -- -- 56
2020-03-12 10:00:00 14.6 4 Nordeste 8 Este 0 -- -- 62
2020-03-12 09:00:00 10 0 Calma 4 Sur 0 -- -- 79
2020-03-12 08:00:00 6.5 0 Calma 7 Sudoeste 0 -- -- 84
2020-03-12 07:00:00 6.4 5 Sudoeste 8 Sudoeste 0 -- -- 82
2020-03-12 06:00:00 7.9 0 Calma 12 Oeste 0 -- -- 77
2020-03-12 05:00:00 10 5 Oeste 15 Sudoeste 0 -- -- 70
2020-03-12 04:00:00 9.8 7 Oeste 17 Sudoeste 0 -- -- 74
2020-03-12 03:00:00 10.2 9 Oeste 15 Oeste 0 -- -- 73
2020-03-12 02:00:00 11.5 12 Oeste 18 Oeste 0 -- -- 69
2020-03-12 01:00:00 12.4 15 Oeste 21 Oeste 0 -- -- 66
2020-03-12 00:00:00 12.6 9 Oeste 17 Oeste 0 -- -- 66
2020-03-11 23:00:00 13 12 Oeste 15 Sudoeste 0 -- -- 65
2020-03-11 22:00:00 14.2 10 Oeste 14 Oeste 0 -- -- 62
2020-03-11 21:00:00 15.4 3 Oeste 12 Sudoeste 0 -- -- 57
2020-03-11 20:00:00 17 7 Sur 14 Oeste 0 -- -- 52
2020-03-11 19:00:00 20 11 Sudoeste 18 Sudoeste 0 -- -- 40
2020-03-11 18:00:00 23 12 Sudoeste 31 Sudoeste 0 -- -- 35
2020-03-11 17:00:00 25.3 13 Oeste 23 Sudoeste 0 -- -- 30
2020-03-11 16:00:00 25.1 14 Sudoeste 25 Sudoeste 0 -- -- 33
2020-03-11 15:00:00 24.6 13 Oeste 27 Sudoeste 0 -- -- 34
2020-03-11 14:00:00 24.1 17 Sudoeste 30 Sudoeste 0 -- -- 33
2020-03-11 13:00:00 22.9 13 Sudoeste 23 Sudoeste 0 -- -- 38
2020-03-11 12:00:00 20.9 6 Sudoeste 13 Sudoeste 0 -- -- 43
2020-03-11 11:00:00 17.5 5 Este 10 Este 0 -- -- 51
2020-03-11 10:00:00 14.7 3 Nordeste 12 Oeste 0 -- -- 59
2020-03-11 09:00:00 10.2 3 Sur 18 Sudoeste 0 -- -- 72
2020-03-11 08:00:00 6.9 14 Sudoeste 18 Sudoeste 0 -- -- 79
2020-03-11 07:00:00 6.4 14 Sudoeste 20 Oeste 0 -- -- 82
2020-03-11 06:00:00 7 13 Sudoeste 17 Sudoeste 0 -- -- 79
2020-03-11 05:00:00 7.1 13 Sudoeste 15 Sudoeste 0 -- -- 80
2020-03-11 04:00:00 7.2 11 Sudoeste 17 Sudoeste 0 -- -- 79
2020-03-11 03:00:00 8.4 11 Sudoeste 17 Sudoeste 0 -- -- 74
2020-03-11 02:00:00 8.4 9 Sudoeste 18 Sudoeste 0 -- -- 74
2020-03-11 01:00:00 8.7 8 Sudoeste 16 Sudoeste 0 -- -- 73
2020-03-11 00:00:00 8.8 12 Sudoeste 15 Sudoeste 0 -- -- 73
2020-03-10 23:00:00 10.7 11 Sudoeste 17 Sudoeste 0 -- -- 67
2020-03-10 22:00:00 11.5 3 Sudoeste 10 Oeste 0 -- -- 63
2020-03-10 21:00:00 13.8 7 Oeste 13 Oeste 0 -- -- 57
2020-03-10 20:00:00 15.1 9 Sudoeste 21 Sudoeste 0 -- -- 55
2020-03-10 19:00:00 18.2 16 Sudoeste 25 Sudoeste 0 -- -- 44
2020-03-10 18:00:00 20.2 18 Sudoeste 33 Sudoeste 0 -- -- 39
2020-03-10 17:00:00 21.1 18 Sudoeste 30 Sudoeste 0 -- -- 38
2020-03-10 16:00:00 22 16 Sudoeste 29 Oeste 0 -- -- 38
2020-03-10 15:00:00 20.9 15 Oeste 38 Sudoeste 0 -- -- 40
2020-03-10 14:00:00 19.5 23 Sudoeste 32 Sudoeste 0 -- -- 41
2020-03-10 13:00:00 18.4 4 Oeste 21 Sudoeste 0 -- -- 41
2020-03-10 12:00:00 16.1 17 Sudoeste 33 Sudoeste 0 -- -- 43
2020-03-10 11:00:00 14.4 26 Sudoeste 35 Sudoeste 0 -- -- 46
2020-03-10 10:00:00 12.6 16 Sudoeste 23 Sudoeste 0 -- -- 51
2020-03-10 09:00:00 9.5 15 Sudoeste 24 Sudoeste 0 -- -- 60
2020-03-10 08:00:00 7.9 14 Sudoeste 25 Sudoeste 0 -- -- 64
2020-03-10 07:00:00 6.8 13 Sur 21 Sudoeste 0 -- -- 66
2020-03-10 06:00:00 6.8 11 Sur 23 Sur 0 -- -- 65
2020-03-10 05:00:00 6.7 13 Sur 26 Sudoeste 0 -- -- 63
2020-03-10 04:00:00 6 12 Sudoeste 22 Sudoeste 0 -- -- 63
2020-03-10 03:00:00 5.9 10 Oeste 15 Oeste 0 -- -- 62
2020-03-10 02:00:00 5.6 4 Sudoeste 14 Oeste 0 -- -- 66
2020-03-10 01:00:00 6.7 5 Sur 26 Oeste 0 -- -- 63
2020-03-10 00:00:00 6.9 11 Oeste 16 Oeste 0 -- -- 66
2020-03-09 23:00:00 7.5 0 Calma 15 Oeste 0 -- -- 60
2020-03-09 22:00:00 8.2 3 Nordeste 19 Oeste 0 -- -- 54
2020-03-09 21:00:00 9.6 14 Oeste 26 Oeste 0 -- -- 49
2020-03-09 20:00:00 10 10 Oeste 28 Noroeste 0 -- -- 45
2020-03-09 19:00:00 11.8 12 Oeste 32 Oeste 0 -- -- 43
2020-03-09 18:00:00 13.2 23 Oeste 36 Oeste 0 -- -- 44
2020-03-09 17:00:00 13.4 15 Oeste 37 Sudoeste 0 -- -- 45
2020-03-09 16:00:00 14.1 22 Sudoeste 40 Sudoeste 0 -- -- 45
2020-03-09 15:00:00 13.9 18 Oeste 33 Oeste 0 -- -- 48
2020-03-09 14:00:00 13 14 Oeste 34 Oeste 0 -- -- 50
2020-03-09 13:00:00 12 17 Oeste 41 Oeste 0 -- -- 52
2020-03-09 12:00:00 11.1 23 Oeste 40 Oeste 0 -- -- 53
2020-03-09 11:00:00 9.6 9 Oeste 27 Oeste 0 -- -- 62
2020-03-09 10:00:00 7.6 15 Oeste 27 Oeste 0 -- -- 74
2020-03-09 09:00:00 6 11 Oeste 20 Oeste 0 -- -- 80
2020-03-09 08:00:00 4.8 2 Noroeste 19 Sudoeste 0 -- -- 83
2020-03-09 07:00:00 5.2 14 Sudoeste 21 Sudoeste 0 -- -- 79
2020-03-09 06:00:00 5.8 13 Sudoeste 41 Oeste 0 -- -- 78
2020-03-09 05:00:00 6.8 23 Oeste 35 Oeste 0 -- -- 74
2020-03-09 04:00:00 7.7 23 Oeste 39 Oeste 0 -- -- 72
2020-03-09 03:00:00 8.5 18 Sudoeste 28 Oeste 0 -- -- 74
2020-03-09 02:00:00 8.1 13 Sudoeste 36 Sudoeste 0 -- -- 78
2020-03-09 01:00:00 9 13 Sudoeste 30 Sudoeste 0 -- -- 78
2020-03-09 00:00:00 6.9 9 Sudoeste 36 Sudoeste 0 -- -- 78
2020-03-08 23:00:00 7.9 24 Sudoeste 33 Sudoeste 0 -- -- 75
2020-03-08 22:00:00 7.5 17 Sudoeste 25 Sudoeste 0 -- -- 66
2020-03-08 21:00:00 8.9 17 Sudoeste 24 Sudoeste 0 -- -- 60
2020-03-08 20:00:00 9.9 12 Sudoeste 19 Sur 0 -- -- 61
2020-03-08 19:00:00 12.3 14 Sudoeste 24 Sudoeste 0 -- -- 50
2020-03-08 18:00:00 13.4 19 Sudoeste 37 Sudoeste 0 -- -- 46
2020-03-08 17:00:00 13.6 24 Sudoeste 35 Sudoeste 0 -- -- 47
2020-03-08 16:00:00 14.5 23 Oeste 35 Oeste 0 -- -- 43
2020-03-08 15:00:00 14.9 21 Sudoeste 31 Sudoeste 0 -- -- 42
2020-03-08 14:00:00 13.8 16 Oeste 36 Sudoeste 0 -- -- 46
2020-03-08 13:00:00 13.3 17 Sudoeste 38 Sudoeste 0 -- -- 48
2020-03-08 12:00:00 12.1 20 Sudoeste 40 Sudoeste 0 -- -- 56
2020-03-08 11:00:00 10.7 28 Sudoeste 39 Sudoeste 0 -- -- 58
2020-03-08 10:00:00 8.8 13 Sudoeste 23 Sudoeste 0 -- -- 67
2020-03-08 09:00:00 5 2 Sur 8 Oeste 0 -- -- 81
2020-03-08 08:00:00 1.2 2 Oeste 12 Sudoeste 0 -- -- 84
2020-03-08 07:00:00 0.5 5 Sudoeste 9 Sudoeste 0 -- -- 85
2020-03-08 06:00:00 0.5 6 Sudoeste 9 Sur 0 -- -- 86
2020-03-08 05:00:00 1.1 5 Sudoeste 8 Sudoeste 0 -- -- 87
2020-03-08 04:00:00 1.9 7 Sur 15 Oeste 0 -- -- 84
2020-03-08 03:00:00 2.6 14 Oeste 16 Oeste 0 -- -- 85
2020-03-08 02:00:00 3.4 13 Oeste 17 Sudoeste 0 -- -- 82
2020-03-08 01:00:00 3.1 8 Sudoeste 16 Oeste 0 -- -- 82
2020-03-08 00:00:00 4.1 5 Oeste 15 Sudoeste 0 -- -- 79
2020-03-07 23:00:00 5.3 11 Sudoeste 17 Sudoeste 0 -- -- 76
2020-03-07 22:00:00 5.8 9 Sudoeste 15 Oeste 0 -- -- 76
2020-03-07 21:00:00 5.9 5 Sur 10 Sur 0 -- -- 73
2020-03-07 20:00:00 8.4 6 Sur 22 Oeste 0 -- -- 65
2020-03-07 19:00:00 10.2 13 Oeste 26 Oeste 0 -- -- 60
2020-03-07 18:00:00 11.8 19 Oeste 29 Oeste 0 -- -- 56
2020-03-07 17:00:00 12.5 10 Noroeste 23 Norte 0 -- -- 51
2020-03-07 16:00:00 12.3 10 Noroeste 27 Norte 0 -- -- 53
2020-03-07 15:00:00 12.3 13 Noroeste 30 Noroeste 0 -- -- 54
2020-03-07 14:00:00 12.9 18 Oeste 33 Oeste 0 -- -- 54
2020-03-07 13:00:00 10.6 16 Oeste 31 Noroeste 0 -- -- 60
2020-03-07 12:00:00 10.5 17 Oeste 32 Oeste 0 -- -- 57
2020-03-07 11:00:00 8.5 17 Oeste 41 Oeste 0 -- -- 65
2020-03-07 10:00:00 6.9 16 Oeste 32 Oeste 0 -- -- 70
2020-03-07 09:00:00 3.8 8 Sudoeste 31 Oeste 0 -- -- 75
2020-03-07 08:00:00 1.7 14 Oeste 19 Oeste 0 -- -- 80
2020-03-07 07:00:00 1 3 Sur 13 Sudoeste 0 -- -- 79
2020-03-07 06:00:00 0.9 9 Oeste 13 Oeste 0 -- -- 81
2020-03-07 05:00:00 0.3 3 Sudoeste 5 Sur 0 -- -- 79
2020-03-07 04:00:00 1.1 0 Calma 20 Sudoeste 0 -- -- 74
2020-03-07 03:00:00 2.4 15 Oeste 36 Oeste 0 -- -- 73
2020-03-07 02:00:00 3.5 18 Oeste 36 Oeste 0 -- -- 67
2020-03-07 01:00:00 4.1 22 Oeste 38 Oeste 0 -- -- 65
2020-03-07 00:00:00 4 10 Oeste 34 Oeste 0 -- -- 62
2020-03-06 23:00:00 3.3 18 Oeste 30 Oeste 0 -- -- 64
2020-03-06 22:00:00 3.5 11 Oeste 31 Oeste 0 -- -- 62
2020-03-06 21:00:00 4.4 19 Oeste 39 Oeste 0 -- -- 59
2020-03-06 20:00:00 5.1 17 Oeste 30 Oeste 0 -- -- 59
2020-03-06 19:00:00 5.7 16 Oeste 40 Oeste 0 -- -- 56
2020-03-06 18:00:00 7.1 24 Oeste 47 Sudoeste 0 -- -- 50
2020-03-06 17:00:00 7.5 23 Oeste 56 Noroeste 0 -- -- 51
2020-03-06 16:00:00 8.4 29 Oeste 61 Oeste 0 -- -- 48
2020-03-06 15:00:00 7.2 33 Oeste 55 Oeste 0 -- -- 53
2020-03-06 14:00:00 5.6 28 Oeste 46 Oeste 0.6 -- -- 78
2020-03-06 13:00:00 6.5 26 Oeste 57 Oeste 0 -- -- 64
2020-03-06 12:00:00 7.1 39 Sudoeste 64 Sudoeste 0 -- -- 62
2020-03-06 11:00:00 6 32 Oeste 54 Oeste 0 -- -- 61
2020-03-06 10:00:00 6.5 34 Sudoeste 57 Sudoeste 0 -- -- 65
2020-03-06 09:00:00 5.1 41 Sudoeste 61 Sudoeste 0 -- -- 68
2020-03-06 08:00:00 4.8 33 Sudoeste 64 Sudoeste 0 -- -- 69
2020-03-06 07:00:00 4.9 22 Sudoeste 36 Sudoeste 0 -- -- 79
2020-03-06 06:00:00 4.8 22 Sudoeste 33 Sudoeste 0 -- -- 78
2020-03-06 05:00:00 4.5 24 Sudoeste 38 Sudoeste 0 -- -- 78
2020-03-06 04:00:00 4.5 23 Sudoeste 46 Sudoeste 0 -- -- 72
2020-03-06 03:00:00 5 25 Sudoeste 55 Oeste 0 -- -- 73
2020-03-06 02:00:00 5.2 28 Sudoeste 51 Sudoeste 0 -- -- 69
2020-03-06 01:00:00 5.6 28 Sudoeste 47 Sudoeste 0 -- -- 71
2020-03-06 00:00:00 6.3 24 Sudoeste 37 Sudoeste 0 -- -- 72
2020-03-05 23:00:00 7.1 16 Sudoeste 26 Sudoeste 0 -- -- 76
2020-03-05 22:00:00 8 14 Sudoeste 27 Oeste 0 -- -- 73
2020-03-05 21:00:00 8.6 19 Sudoeste 32 Sudoeste 0 -- -- 67
2020-03-05 20:00:00 8.9 16 Sudoeste 43 Sudoeste 0 -- -- 66
2020-03-05 19:00:00 10 18 Sudoeste 51 Sudoeste 0 -- -- 63
2020-03-05 18:00:00 11.4 34 Sudoeste 61 Sudoeste 0 -- -- 55
2020-03-05 17:00:00 11.5 36 Sudoeste 58 Sudoeste 0 -- -- 56
2020-03-05 16:00:00 11.1 35 Sudoeste 63 Oeste 0 -- -- 56
2020-03-05 15:00:00 11.6 41 Sudoeste 63 Sudoeste 0 -- -- 54
2020-03-05 14:00:00 11.2 45 Sudoeste 63 Sudoeste 0 -- -- 60
2020-03-05 13:00:00 9 39 Sudoeste 69 Sudoeste 2.8 -- -- 75
2020-03-05 12:00:00 10.9 33 Sudoeste 59 Sudoeste 0.2 -- -- 85
2020-03-05 11:00:00 11 39 Sudoeste 64 Sur 0 -- -- 82
2020-03-05 10:00:00 10.6 39 Sudoeste 60 Sudoeste 0 -- -- 82
2020-03-05 09:00:00 10.5 28 Sudoeste 44 Sudoeste 0 -- -- 81
2020-03-05 08:00:00 9.5 29 Sudoeste 48 Sudoeste 0 -- -- 85
2020-03-05 07:00:00 9.3 26 Sur 46 Sudoeste 0 -- -- 84
2020-03-05 06:00:00 9 28 Sudoeste 42 Sudoeste 0 -- -- 83
2020-03-05 05:00:00 8.6 23 Sur 40 Sur 0 -- -- 82
2020-03-05 04:00:00 9.3 22 Sudoeste 37 Sur 0 -- -- 78
2020-03-05 03:00:00 9.6 22 Sudoeste 33 Sudoeste 0 -- -- 71
2020-03-05 02:00:00 8.8 10 Oeste 22 Oeste 0 -- -- 74
2020-03-05 01:00:00 8.5 9 Oeste 18 Sudoeste 0 -- -- 75
2020-03-05 00:00:00 9.2 5 Oeste 16 Sudoeste 0 -- -- 71
2020-03-04 23:00:00 10.2 10 Sudoeste 15 Sudoeste 0 -- -- 70
2020-03-04 22:00:00 10.5 2 Oeste 17 Sudoeste 0 -- -- 69
2020-03-04 21:00:00 10.9 10 Oeste 31 Sudoeste 0 -- -- 67
2020-03-04 20:00:00 10.8 12 Sudoeste 37 Sudoeste 0 -- -- 70
2020-03-04 19:00:00 12.2 20 Oeste 43 Oeste 0 -- -- 63
2020-03-04 18:00:00 13.2 26 Oeste 44 Sudoeste 0 -- -- 59
2020-03-04 17:00:00 14.7 31 Oeste 51 Sudoeste 0 -- -- 56
2020-03-04 16:00:00 14.9 35 Sudoeste 46 Sudoeste 0 -- -- 56
2020-03-04 15:00:00 15.1 32 Oeste 49 Oeste 0 -- -- 55
2020-03-04 14:00:00 14.5 32 Sudoeste -- -- -- -- -- 62
2020-03-04 13:00:00 15 27 Sudoeste 41 Sudoeste 0 -- -- 59
2020-03-04 12:00:00 13.5 31 Sudoeste 42 Oeste 0 -- -- 64
2020-03-04 11:00:00 12.4 24 Sudoeste 35 Sudoeste 0 -- -- 69
2020-03-04 10:00:00 11.7 21 Sudoeste 27 Sudoeste 0 -- -- 79
2020-03-04 09:00:00 11 13 Sudoeste 24 Sur 0 -- -- 85
2020-03-04 08:00:00 11 12 Oeste 23 Sudoeste 0 -- -- 85
2020-03-04 07:00:00 11.1 10 Sudoeste 30 Sudoeste 0 -- -- 84
2020-03-04 06:00:00 10.4 10 Sur 19 Sur 0 -- -- 87
2020-03-04 05:00:00 10.8 12 Sur 36 Sudoeste 0 -- -- 81
2020-03-04 04:00:00 11.1 22 Sudoeste 32 Sudoeste 0 -- -- 82
2020-03-04 03:00:00 9.3 5 Sudoeste 11 Sur 0 -- -- 83
2020-03-04 02:00:00 8 0 Calma 15 Sudoeste 0 -- -- 79
2020-03-04 01:00:00 7.9 10 Sudoeste 19 Sudoeste 0 -- -- 80
2020-03-04 00:00:00 8.8 0 Calma 9 Sudoeste 0 -- -- 81
2020-03-03 23:00:00 10.4 9 Sudoeste 36 Sudoeste 0 -- -- 78
2020-03-03 22:00:00 11.4 21 Sudoeste 40 Sudoeste 0 -- -- 75
2020-03-03 21:00:00 11.9 23 Sudoeste 37 Sudoeste 0 -- -- 71
2020-03-03 20:00:00 12.8 27 Sudoeste 53 Sudoeste 0 -- -- 69
2020-03-03 19:00:00 13.7 40 Sudoeste 66 Sudoeste 0 -- -- 64
2020-03-03 18:00:00 14.7 44 Sudoeste 79 Sudoeste 0 -- -- 58
2020-03-03 17:00:00 15.2 54 Sudoeste 81 Sudoeste 0 -- -- 56
2020-03-03 16:00:00 14.6 54 Sudoeste 83 Sudoeste 0 -- -- 60
2020-03-03 15:00:00 14.2 47 Sudoeste 86 Sudoeste 0 -- -- 61
2020-03-03 14:00:00 12.4 36 Sudoeste 61 Sur 0 -- -- 70
2020-03-03 13:00:00 9.1 37 Sudoeste 58 Sur 0 -- -- 78
2020-03-03 12:00:00 8.1 39 Sudoeste 55 Sudoeste 0 -- -- 78
2020-03-03 11:00:00 6.5 36 Sur 57 Sur 0 -- -- 81
2020-03-03 10:00:00 4.8 36 Sudoeste 54 Sur 0.2 -- -- 83
2020-03-03 09:00:00 4 32 Sudoeste 50 Sudoeste 0.2 -- -- 86
2020-03-03 08:00:00 3.2 17 Sur 34 Sur 0.6 -- -- 87
2020-03-03 07:00:00 3 15 Sur 33 Sudoeste 0.2 -- -- 86
2020-03-03 06:00:00 4.1 22 Sudoeste 33 Sudoeste 0 -- -- 73
2020-03-03 05:00:00 4 18 Sur 33 Sudoeste 0 -- -- 70
2020-03-03 04:00:00 4.3 24 Sudoeste 32 Sudoeste 0 -- -- 68
2020-03-03 03:00:00 3.8 12 Sudoeste 22 Sudoeste 0 -- -- 69
2020-03-03 02:00:00 3 12 Sudoeste 26 Sudoeste 0 -- -- 71
2020-03-03 01:00:00 4.5 18 Sudoeste 39 Sudoeste 0 -- -- 70
2020-03-03 00:00:00 2.4 0 Calma 20 Sudoeste 0 -- -- 74
2020-03-02 23:00:00 3.2 15 Sur 34 Oeste 0 -- -- 70
2020-03-02 22:00:00 3.7 19 Sudoeste 45 Sudoeste 0 -- -- 65
2020-03-02 21:00:00 4.3 28 Sudoeste 48 Sudoeste 0 -- -- 65
2020-03-02 20:00:00 4.9 19 Sudoeste 41 Sudoeste 0 -- -- 63
2020-03-02 19:00:00 5.3 29 Sudoeste 45 Sudoeste 0 -- -- 66
2020-03-02 18:00:00 6 36 Sudoeste 66 Sudoeste 0 -- -- 62
2020-03-02 17:00:00 5.5 37 Sudoeste 72 Sudoeste 0 -- -- 62
2020-03-02 16:00:00 7.5 42 Sudoeste 71 Sudoeste 0 -- -- 63
2020-03-02 15:00:00 5.5 35 Oeste 73 Sudoeste 1 -- -- 71
2020-03-02 14:00:00 8.7 41 Oeste 75 Oeste 0 -- -- 58
2020-03-02 13:00:00 8.7 48 Sudoeste 72 Oeste 0 -- -- 62
2020-03-02 12:00:00 7.9 46 Sudoeste 66 Sudoeste 0 -- -- 61
2020-03-02 11:00:00 7.7 44 Sudoeste 71 Sudoeste 0 -- -- 68
2020-03-02 10:00:00 8 49 Sudoeste 70 Sudoeste 0 -- -- 68
2020-03-02 09:00:00 6.9 30 Sudoeste 74 Sudoeste 0 -- -- 78
2020-03-02 08:00:00 7.6 51 Sudoeste 100 Sudoeste 0 -- -- 72
2020-03-02 07:00:00 8.1 57 Sudoeste 92 Sudoeste 1.2 -- -- 76
2020-03-02 06:00:00 9.7 41 Sudoeste 77 Sur 1 -- -- 86
2020-03-02 05:00:00 10 46 Sur 87 Sur 0 -- -- 83
2020-03-02 04:00:00 9.9 47 Sur 93 Sur 0.2 -- -- 85
2020-03-02 03:00:00 10.3 56 Sur 82 Sur 0.8 -- -- 85
2020-03-02 02:00:00 10.2 53 Sur 84 Sur 1.6 -- -- 86
2020-03-02 01:00:00 10.5 60 Sur 90 Sur 0.6 -- -- 82
2020-03-02 00:00:00 10.4 53 Sur 85 Sur 0.4 -- -- 84
2020-03-01 23:00:00 10.1 35 Sur 59 Sudoeste 0 -- -- 86
2020-03-01 22:00:00 10.5 33 Sur 67 Sudoeste 0 -- -- 82
2020-03-01 21:00:00 11 39 Sur 66 Sudoeste 0 -- -- 75
2020-03-01 20:00:00 10.9 32 Sur 58 Sudoeste 0 -- -- 77
2020-03-01 19:00:00 10.7 27 Sur 51 Sur 0 -- -- 77
2020-03-01 18:00:00 12 35 Sur 56 Sur 0 -- -- 68
2020-03-01 17:00:00 13.2 39 Sur 57 Sudoeste 0 -- -- 61
2020-03-01 16:00:00 13.6 39 Sudoeste 58 Sudoeste 0 -- -- 59
2020-03-01 15:00:00 12.9 42 Sur 68 Sur 0 -- -- 62
2020-03-01 14:00:00 11.6 37 Sur 62 Sur 0 -- -- 70
2020-03-01 13:00:00 12.3 38 Sudoeste 64 Sudoeste 0 -- -- 64
2020-03-01 12:00:00 11.2 40 Sudoeste 58 Sudoeste 0 -- -- 69
2020-03-01 11:00:00 10.7 36 Sudoeste 60 Sudoeste 0 -- -- 70
2020-03-01 10:00:00 9 37 Sudoeste 59 Sudoeste 0 -- -- 73
2020-03-01 09:00:00 8.1 28 Sudoeste 51 Sudoeste 0 -- -- 75
2020-03-01 08:00:00 7 29 Sudoeste 47 Sudoeste 0 -- -- 77
2020-03-01 07:00:00 7.5 28 Sudoeste 42 Sur 0 -- -- 76
2020-03-01 06:00:00 7.4 28 Sudoeste 43 Sudoeste 0 -- -- 75
2020-03-01 05:00:00 7.5 26 Sur 42 Sur 0 -- -- 73
2020-03-01 04:00:00 7.9 27 Sur 40 Sur 0 -- -- 67
2020-03-01 03:00:00 8.3 26 Sur 42 Sur 0 -- -- 63
2020-03-01 02:00:00 7.5 17 Sudoeste 30 Sudoeste 0 -- -- 66
2020-03-01 01:00:00 6.4 7 Sudoeste 19 Oeste 0 -- -- 67
2020-03-01 00:00:00 6.9 17 Oeste 28 Sudoeste 0 -- -- 66
2020-02-29 23:00:00 7.5 18 Sudoeste 26 Oeste 0 -- -- 68
2020-02-29 22:00:00 9.7 21 Sudoeste 39 Sudoeste 0 -- -- 77
2020-02-29 21:00:00 10.5 27 Sudoeste 44 Sudoeste 0 -- -- 75
2020-02-29 20:00:00 10.9 32 Sudoeste 49 Sudoeste 0 -- -- 73
2020-02-29 19:00:00 11.2 32 Sudoeste 57 Sudoeste 0 -- -- 72
2020-02-29 18:00:00 12.2 32 Sur 62 Sur 0 -- -- 68
2020-02-29 17:00:00 12.6 43 Sur 64 Sur 0 -- -- 65
2020-02-29 16:00:00 12.4 42 Sur 64 Sudoeste 0 -- -- 66
2020-02-29 15:00:00 12 35 Sur 61 Sudoeste 0 -- -- 66
2020-02-29 14:00:00 10.9 32 Sur 62 Sur 0 -- -- 70
2020-02-29 13:00:00 10.3 44 Sur 72 Sudoeste 0 -- -- 71
2020-02-29 12:00:00 10.3 45 Sur 65 Sudoeste 0 -- -- 66
2020-02-29 11:00:00 11.4 41 Sur 70 Sur 0 -- -- 59
2020-02-29 10:00:00 10 36 Sur 79 Sur 0 -- -- 57
2020-02-29 09:00:00 8.9 41 Sur 67 Sur 0 -- -- 58
2020-02-29 08:00:00 8.2 37 Sur 66 Sur 0 -- -- 62
2020-02-29 07:00:00 8.5 31 Sur 53 Sudoeste 0 -- -- 65
2020-02-29 06:00:00 8.8 33 Sur 53 Sur 0 -- -- 60
2020-02-29 05:00:00 9.4 32 Sur 50 Sur 0 -- -- 55
2020-02-29 04:00:00 9 30 Sur 44 Sur 0 -- -- 54
2020-02-29 03:00:00 8.8 14 Sudoeste 30 Sudoeste 0 -- -- 56
2020-02-29 02:00:00 6.1 8 Sudoeste 18 Sur 0 -- -- 66
2020-02-29 01:00:00 5.3 3 Sudoeste 9 Sudoeste 0 -- -- 67
2020-02-29 00:00:00 7 0 Calma 10 Sudoeste 0 -- -- 61